Time,TemperatureF,DewpointF,PressureIn,WindDirection,WindDirectionDegrees,WindSpeedMPH,WindSpeedGustMPH,Humidity,HourlyPrecipIn,Conditions,Clouds,dailyrainin,SoftwareType,DateUTC
2013-01-23 00:00:00,33.3,23.1,29.83,East,101,3.0,6.0,66,0.00,CLR,CLR,0.00,WeatherDisplay:10.37,2013-01-23 00:00:00,
2013-01-23 00:10:00,33.3,23.1,29.83,East,100,5.0,6.0,66,0.00,CLR,CLR,0.00,WeatherDisplay:10.37,2013-01-23 00:10:00,
2013-01-23 00:15:00,33.3,23.1,29.83,East,101,3.0,4.0,66,0.00,CLR,CLR,0.00,WeatherDisplay:10.37,2013-01-23 00:15:00,
2013-01-23 00:20:00,33.1,22.9,29.83,East,92,1.0,6.0,66,0.00,CLR,CLR,0.00,WeatherDisplay:10.37,2013-01-23 00:20:00,
2013-01-23 00:25:00,33.1,22.9,29.83,East,81,3.0,5.0,66,0.00,CLR,CLR,0.00,WeatherDisplay:10.37,2013-01-23 00:25:00,
2013-01-23 00:30:00,32.9,22.8,29.83,ENE,78,5.0,6.0,66,0.00,CLR,CLR,0.00,WeatherDisplay:10.37,2013-01-23 00:30:00,
2013-01-23 00:35:00,33.1,22.9,29.83,East,79,3.0,6.0,66,0.00,CLR,CLR,0.00,WeatherDisplay:10.37,2013-01-23 00:35:00,
2013-01-23 00:40:00,32.9,22.8,29.83,ENE,71,3.0,6.0,66,0.00,CLR,CLR,0.00,WeatherDisplay:10.37,2013-01-23 00:40:00,
2013-01-23 00:45:00,32.9,22.8,29.83,ENE,75,3.0,5.0,66,0.00,CLR,CLR,0.00,WeatherDisplay:10.37,2013-01-23 00:45:00,
2013-01-23 00:50:00,32.9,22.8,29.83,East,85,3.0,4.0,66,0.00,CLR,CLR,0.00,WeatherDisplay:10.37,2013-01-23 00:50:00,
2013-01-23 00:55:00,32.9,22.8,29.83,East,96,1.0,3.0,66,0.00,CLR,CLR,0.00,WeatherDisplay:10.37,2013-01-23 00:55:00,
2013-01-23 01:00:00,32.9,22.8,29.83,East,94,3.0,4.0,66,0.00,CLR,CLR,0.00,WeatherDisplay:10.37,2013-01-23 01:00:00,
2013-01-23 01:05:00,32.9,22.8,29.83,East,93,2.0,4.0,66,0.00,CLR,CLR,0.00,WeatherDisplay:10.37,2013-01-23 01:05:00,
2013-01-23 01:10:00,32.9,22.8,29.83,East,98,3.0,4.0,66,0.00,CLR,CLR,0.00,WeatherDisplay:10.37,2013-01-23 01:10:00,
2013-01-23 01:15:00,32.9,22.8,29.83,East,101,3.0,5.0,66,0.00,CLR,CLR,0.00,WeatherDisplay:10.37,2013-01-23 01:15:00,
2013-01-23 01:20:00,33.0,23.2,29.83,ESE,104,3.0,5.0,67,0.00,CLR,CLR,0.00,WeatherDisplay:10.37,2013-01-23 01:20:00,
2013-01-23 01:25:00,33.1,23.3,29.83,East,101,3.0,6.0,67,0.00,CLR,CLR,0.00,WeatherDisplay:10.37,2013-01-23 01:25:00,
2013-01-23 01:30:00,33.1,23.3,29.83,East,100,3.0,5.0,67,0.00,CLR,CLR,0.00,WeatherDisplay:10.37,2013-01-23 01:30:00,
2013-01-23 01:35:00,33.1,23.3,29.83,East,96,5.0,6.0,67,0.00,CLR,CLR,0.00,WeatherDisplay:10.37,2013-01-23 01:35:00,
2013-01-23 01:40:00,33.3,23.5,29.83,East,92,3.0,6.0,67,0.00,CLR,CLR,0.00,WeatherDisplay:10.37,2013-01-23 01:40:00,
2013-01-23 01:45:00,33.3,23.5,29.83,East,93,3.0,5.0,67,0.00,CLR,CLR,0.00,WeatherDisplay:10.37,2013-01-23 01:45:00,
2013-01-23 01:50:00,33.3,23.5,29.83,East,96,3.0,6.0,67,0.00,CLR,CLR,0.00,WeatherDisplay:10.37,2013-01-23 01:50:00,
2013-01-23 01:55:00,33.3,23.5,29.83,East,100,3.0,5.0,67,0.00,CLR,CLR,0.00,WeatherDisplay:10.37,2013-01-23 01:55:00,
2013-01-23 02:00:00,33.3,23.1,29.83,ESE,105,3.0,6.0,66,0.00,CLR,CLR,0.00,WeatherDisplay:10.37,2013-01-23 02:00:00,
2013-01-23 02:05:00,33.3,23.1,29.83,ESE,103,3.0,6.0,66,0.00,CLR,CLR,0.00,WeatherDisplay:10.37,2013-01-23 02:05:00,
2013-01-23 02:10:00,33.3,23.1,29.83,East,101,2.0,6.0,66,0.00,CLR,CLR,0.00,WeatherDisplay:10.37,2013-01-23 02:10:00,
2013-01-23 02:15:00,33.2,23.1,29.83,East,100,5.0,6.0,66,0.00,CLR,CLR,0.00,WeatherDisplay:10.37,2013-01-23 02:15:00,
2013-01-23 02:20:00,33.1,22.9,29.83,East,96,3.0,5.0,66,0.00,CLR,CLR,0.00,WeatherDisplay:10.37,2013-01-23 02:20:00,
2013-01-23 02:25:00,33.1,22.9,29.83,East,96,5.0,5.0,66,0.00,CLR,CLR,0.00,WeatherDisplay:10.37,2013-01-23 02:25:00,
2013-01-23 02:30:00,33.1,22.6,29.83,East,97,2.0,4.0,65,0.00,CLR,CLR,0.00,WeatherDisplay:10.37,2013-01-23 02:30:00,
2013-01-23 02:40:00,32.9,22.4,29.83,East,95,3.0,4.0,65,0.00,CLR,CLR,0.00,WeatherDisplay:10.37,2013-01-23 02:40:00,
2013-01-23 02:45:00,32.9,22.4,29.83,East,81,0.0,5.0,65,0.00,CLR,CLR,0.00,WeatherDisplay:10.37,2013-01-23 02:45:00,
2013-01-23 02:50:00,32.9,22.4,29.85,ENE,64,1.0,5.0,65,0.00,CLR,CLR,0.00,WeatherDisplay:10.37,2013-01-23 02:50:00,
2013-01-23 02:55:00,32.7,22.2,29.85,NE,52,0.0,2.0,65,0.00,CLR,CLR,0.00,WeatherDisplay:10.37,2013-01-23 02:55:00,
2013-01-23 03:00:00,32.7,22.2,29.85,ENE,71,0.0,0.0,65,0.00,CLR,CLR,0.00,WeatherDisplay:10.37,2013-01-23 03:00:00,
2013-01-23 03:05:00,32.7,22.2,29.85,East,96,0.0,0.0,65,0.00,CLR,CLR,0.00,WeatherDisplay:10.37,2013-01-23 03:05:00,
2013-01-23 03:10:00,32.7,22.2,29.85,East,90,0.0,0.0,65,0.00,CLR,CLR,0.00,WeatherDisplay:10.37,2013-01-23 03:10:00,
2013-01-23 03:15:00,32.7,21.9,29.85,East,80,0.0,0.0,64,0.00,CLR,CLR,0.00,WeatherDisplay:10.37,2013-01-23 03:15:00,
2013-01-23 03:20:00,32.7,21.9,29.85,East,81,0.0,0.0,64,0.00,CLR,CLR,0.00,WeatherDisplay:10.37,2013-01-23 03:20:00,
2013-01-23 03:25:00,32.7,21.9,29.85,ENE,74,0.0,4.0,64,0.00,CLR,CLR,0.00,WeatherDisplay:10.37,2013-01-23 03:25:00,
2013-01-23 03:30:00,32.7,21.9,29.85,ENE,78,0.0,3.0,64,0.00,CLR,CLR,0.00,WeatherDisplay:10.37,2013-01-23 03:30:00,
2013-01-23 03:40:00,32.5,21.3,29.85,East,87,0.0,0.0,63,0.00,CLR,CLR,0.00,WeatherDisplay:10.37,2013-01-23 03:40:00,
2013-01-23 03:45:00,32.5,21.3,29.85,East,90,0.0,0.0,63,0.00,CLR,CLR,0.00,WeatherDisplay:10.37,2013-01-23 03:45:00,
2013-01-23 03:50:00,32.5,21.3,29.85,East,91,0.0,0.0,63,0.00,CLR,CLR,0.00,WeatherDisplay:10.37,2013-01-23 03:50:00,
2013-01-23 03:55:00,32.5,21.0,29.85,East,93,0.0,0.0,62,0.00,CLR,CLR,0.00,WeatherDisplay:10.37,2013-01-23 03:55:00,
2013-01-23 04:00:00,32.4,20.8,29.85,East,88,0.0,0.0,62,0.00,CLR,CLR,0.00,WeatherDisplay:10.37,2013-01-23 04:00:00,
2013-01-23 04:05:00,32.4,20.4,29.83,East,89,0.0,0.0,61,0.00,CLR,CLR,0.00,WeatherDisplay:10.37,2013-01-23 04:05:00,
2013-01-23 04:15:00,32.2,20.2,29.83,East,92,0.0,0.0,61,0.00,CLR,CLR,0.00,WeatherDisplay:10.37,2013-01-23 04:15:00,
2013-01-23 04:25:00,32.2,20.2,29.85,East,85,0.0,0.0,61,0.00,CLR,CLR,0.00,WeatherDisplay:10.37,2013-01-23 04:25:00,
2013-01-23 04:30:00,32.2,20.2,29.85,ENE,70,0.0,0.0,61,0.00,CLR,CLR,0.00,WeatherDisplay:10.37,2013-01-23 04:30:00,
2013-01-23 04:40:00,32.2,20.2,29.85,ENE,75,0.0,0.0,61,0.00,CLR,CLR,0.00,WeatherDisplay:10.37,2013-01-23 04:40:00,
2013-01-23 04:45:00,32.2,19.8,29.85,East,85,0.0,0.0,60,0.00,CLR,CLR,0.00,WeatherDisplay:10.37,2013-01-23 04:45:00,
2013-01-23 04:50:00,32.2,19.8,29.85,East,82,0.0,0.0,60,0.00,CLR,CLR,0.00,WeatherDisplay:10.37,2013-01-23 04:50:00,
2013-01-23 04:55:00,32.2,19.4,29.85,ENE,73,0.0,0.0,59,0.00,CLR,CLR,0.00,WeatherDisplay:10.37,2013-01-23 04:55:00,
2013-01-23 05:05:00,32.2,19.4,29.85,East,80,0.0,0.0,59,0.00,CLR,CLR,0.00,WeatherDisplay:10.37,2013-01-23 05:05:00,
2013-01-23 05:10:00,32.2,19.4,29.85,East,89,0.0,0.0,59,0.00,CLR,CLR,0.00,WeatherDisplay:10.37,2013-01-23 05:10:00,
2013-01-23 05:15:00,32.0,19.3,29.85,ESE,103,0.0,0.0,59,0.00,CLR,CLR,0.00,WeatherDisplay:10.37,2013-01-23 05:15:00,
2013-01-23 05:20:00,32.0,18.9,29.85,East,89,0.0,0.0,58,0.00,CLR,CLR,0.00,WeatherDisplay:10.37,2013-01-23 05:20:00,
2013-01-23 05:25:00,31.8,18.7,29.85,ENE,77,0.0,0.0,58,0.00,CLR,CLR,0.00,WeatherDisplay:10.37,2013-01-23 05:25:00,
2013-01-23 05:30:00,31.8,18.7,29.85,ENE,78,0.0,0.0,58,0.00,CLR,CLR,0.00,WeatherDisplay:10.37,2013-01-23 05:30:00,
2013-01-23 05:35:00,31.8,18.7,29.85,East,88,0.0,0.0,58,0.00,CLR,CLR,0.00,WeatherDisplay:10.37,2013-01-23 05:35:00,
2013-01-23 05:40:00,31.6,18.1,29.85,East,88,0.0,0.0,57,0.00,CLR,CLR,0.00,WeatherDisplay:10.37,2013-01-23 05:40:00,
2013-01-23 05:50:00,31.3,17.8,29.83,East,92,0.0,0.0,57,0.00,CLR,CLR,0.00,WeatherDisplay:10.37,2013-01-23 05:50:00,
2013-01-23 05:55:00,31.1,17.6,29.83,East,92,0.0,0.0,57,0.00,CLR,CLR,0.00,WeatherDisplay:10.37,2013-01-23 05:55:00,
2013-01-23 06:00:00,31.1,17.6,29.83,East,94,0.0,0.0,57,0.00,CLR,CLR,0.00,WeatherDisplay:10.37,2013-01-23 06:00:00,
2013-01-23 06:05:00,30.9,17.0,29.83,East,96,0.0,0.0,56,0.00,CLR,CLR,0.00,WeatherDisplay:10.37,2013-01-23 06:05:00,
2013-01-23 06:10:00,30.7,16.9,29.83,East,97,0.0,0.0,56,0.00,CLR,CLR,0.00,WeatherDisplay:10.37,2013-01-23 06:10:00,
2013-01-23 06:15:00,30.7,16.9,29.83,East,99,0.0,0.0,56,0.00,CLR,CLR,0.00,WeatherDisplay:10.37,2013-01-23 06:15:00,
2013-01-23 06:20:00,30.7,16.9,29.83,East,95,0.0,0.0,56,0.00,CLR,CLR,0.00,WeatherDisplay:10.37,2013-01-23 06:20:00,
2013-01-23 06:25:00,30.6,16.7,29.83,East,96,0.0,0.0,56,0.00,CLR,CLR,0.00,WeatherDisplay:10.37,2013-01-23 06:25:00,
2013-01-23 06:30:00,30.4,16.1,29.83,East,96,0.0,0.0,55,0.00,CLR,CLR,0.00,WeatherDisplay:10.37,2013-01-23 06:30:00,
2013-01-23 06:40:00,30.2,16.0,29.83,East,97,0.0,0.0,55,0.00,CLR,CLR,0.00,WeatherDisplay:10.37,2013-01-23 06:40:00,
2013-01-23 06:45:00,30.2,16.0,29.83,East,93,0.0,0.0,55,0.00,CLR,CLR,0.00,WeatherDisplay:10.37,2013-01-23 06:45:00,
2013-01-23 06:50:00,30.1,15.8,29.83,East,89,0.0,0.0,55,0.00,CLR,CLR,0.00,WeatherDisplay:10.37,2013-01-23 06:50:00,
2013-01-23 06:55:00,30.0,15.8,29.83,East,95,0.0,0.0,55,0.00,CLR,CLR,0.00,WeatherDisplay:10.37,2013-01-23 06:55:00,
2013-01-23 07:00:00,29.8,15.6,29.83,East,98,0.0,0.0,55,0.00,CLR,CLR,0.00,WeatherDisplay:10.37,2013-01-23 07:00:00,
2013-01-23 07:10:00,29.8,15.6,29.83,East,93,0.0,0.0,55,0.00,CLR,CLR,0.00,WeatherDisplay:10.37,2013-01-23 07:10:00,
2013-01-23 07:15:00,30.0,15.8,29.83,East,97,0.0,0.0,55,0.00,CLR,CLR,0.00,WeatherDisplay:10.37,2013-01-23 07:15:00,
2013-01-23 07:20:00,30.1,15.8,29.83,East,96,0.0,0.0,55,0.00,CLR,CLR,0.00,WeatherDisplay:10.37,2013-01-23 07:20:00,
2013-01-23 07:25:00,30.2,16.0,29.83,East,95,0.0,0.0,55,0.00,CLR,CLR,0.00,WeatherDisplay:10.37,2013-01-23 07:25:00,
2013-01-23 07:30:00,30.4,16.1,29.83,East,97,0.0,0.0,55,0.00,CLR,CLR,0.00,WeatherDisplay:10.37,2013-01-23 07:30:00,
2013-01-23 07:40:00,30.7,16.0,29.83,East,101,0.0,0.0,54,0.00,CLR,CLR,0.00,WeatherDisplay:10.37,2013-01-23 07:40:00,
2013-01-23 07:45:00,30.9,16.2,29.83,East,100,0.0,0.0,54,0.00,CLR,CLR,0.00,WeatherDisplay:10.37,2013-01-23 07:45:00,
2013-01-23 07:50:00,30.9,16.2,29.83,East,99,0.0,0.0,54,0.00,CLR,CLR,0.00,WeatherDisplay:10.37,2013-01-23 07:50:00,
2013-01-23 07:55:00,30.9,16.2,29.83,East,95,0.0,0.0,54,0.00,CLR,CLR,0.00,WeatherDisplay:10.37,2013-01-23 07:55:00,
2013-01-23 08:00:00,31.0,16.2,29.83,East,89,0.0,0.0,54,0.00,CLR,CLR,0.00,WeatherDisplay:10.37,2013-01-23 08:00:00,
2013-01-23 08:05:00,31.1,16.4,29.83,East,90,0.0,0.0,54,0.00,CLR,CLR,0.00,WeatherDisplay:10.37,2013-01-23 08:05:00,
2013-01-23 08:10:00,31.1,16.4,29.83,East,90,0.0,0.0,54,0.00,CLR,CLR,0.00,WeatherDisplay:10.37,2013-01-23 08:10:00,
2013-01-23 08:15:00,31.1,16.4,29.83,East,86,0.0,0.0,54,0.00,CLR,CLR,0.00,WeatherDisplay:10.37,2013-01-23 08:15:00,
2013-01-23 08:20:00,31.1,16.4,29.83,East,87,0.0,0.0,54,0.00,CLR,CLR,0.00,WeatherDisplay:10.37,2013-01-23 08:20:00,
2013-01-23 08:25:00,31.3,16.5,29.83,East,93,0.0,0.0,54,0.00,CLR,CLR,0.00,WeatherDisplay:10.37,2013-01-23 08:25:00,
2013-01-23 08:30:00,31.1,16.4,29.83,East,96,0.0,0.0,54,0.00,CLR,CLR,0.00,WeatherDisplay:10.37,2013-01-23 08:30:00,
2013-01-23 08:35:00,31.3,16.5,29.83,East,99,0.0,0.0,54,0.00,CLR,CLR,0.00,WeatherDisplay:10.37,2013-01-23 08:35:00,
2013-01-23 08:45:00,31.3,16.5,29.83,East,96,0.0,0.0,54,0.00,CLR,CLR,0.00,WeatherDisplay:10.37,2013-01-23 08:45:00,
2013-01-23 08:50:00,31.3,16.5,29.85,East,90,0.0,0.0,54,0.00,CLR,CLR,0.00,WeatherDisplay:10.37,2013-01-23 08:50:00,
2013-01-23 08:55:00,31.3,16.5,29.85,East,85,0.0,0.0,54,0.00,CLR,CLR,0.00,WeatherDisplay:10.37,2013-01-23 08:55:00,
2013-01-23 09:05:00,31.3,16.5,29.85,East,96,0.0,0.0,54,0.00,CLR,CLR,0.00,WeatherDisplay:10.37,2013-01-23 09:05:00,
2013-01-23 09:10:00,31.5,16.7,29.85,East,92,0.0,0.0,54,0.00,CLR,CLR,0.00,WeatherDisplay:10.37,2013-01-23 09:10:00,
2013-01-23 09:15:00,31.5,16.7,29.85,East,91,0.0,0.0,54,0.00,CLR,CLR,0.00,WeatherDisplay:10.37,2013-01-23 09:15:00,
2013-01-23 09:20:00,31.6,17.3,29.85,East,98,1.0,6.0,55,0.00,CLR,CLR,0.00,WeatherDisplay:10.37,2013-01-23 09:20:00,
2013-01-23 09:25:00,31.6,17.3,29.85,East,95,0.0,6.0,55,0.00,CLR,CLR,0.00,WeatherDisplay:10.37,2013-01-23 09:25:00,
2013-01-23 09:30:00,31.8,17.5,29.85,East,87,3.0,6.0,55,0.00,CLR,CLR,0.00,WeatherDisplay:10.37,2013-01-23 09:30:00,
2013-01-23 09:35:00,31.8,17.5,29.85,East,85,2.0,6.0,55,0.00,CLR,CLR,0.00,WeatherDisplay:10.37,2013-01-23 09:35:00,
2013-01-23 09:40:00,32.0,17.6,29.85,East,90,3.0,6.0,55,0.00,CLR,CLR,0.00,WeatherDisplay:10.37,2013-01-23 09:40:00,
2013-01-23 09:45:00,32.2,17.8,29.85,East,86,3.0,6.0,55,0.00,CLR,CLR,0.00,WeatherDisplay:10.37,2013-01-23 09:45:00,
2013-01-23 09:50:00,32.2,17.8,29.85,East,90,3.0,5.0,55,0.00,CLR,CLR,0.00,WeatherDisplay:10.37,2013-01-23 09:50:00,
2013-01-23 09:55:00,32.2,17.8,29.85,East,94,3.0,4.0,55,0.00,CLR,CLR,0.00,WeatherDisplay:10.37,2013-01-23 09:55:00,
2013-01-23 10:00:00,32.2,17.8,29.85,East,86,3.0,6.0,55,0.00,CLR,CLR,0.00,WeatherDisplay:10.37,2013-01-23 10:00:00,
2013-01-23 10:05:00,32.4,18.0,29.85,ENE,71,2.0,6.0,55,0.00,CLR,CLR,0.00,WeatherDisplay:10.37,2013-01-23 10:05:00,
2013-01-23 10:10:00,32.4,18.0,29.85,ENE,78,0.0,4.0,55,0.00,CLR,CLR,0.00,WeatherDisplay:10.37,2013-01-23 10:10:00,
2013-01-23 10:15:00,32.4,18.0,29.85,East,81,2.0,4.0,55,0.00,CLR,CLR,0.00,WeatherDisplay:10.37,2013-01-23 10:15:00,
2013-01-23 10:20:00,32.5,18.1,29.85,East,88,5.0,6.0,55,0.00,CLR,CLR,0.00,WeatherDisplay:10.37,2013-01-23 10:20:00,
2013-01-23 10:30:00,32.5,18.1,29.85,East,98,3.0,5.0,55,0.00,CLR,CLR,0.00,WeatherDisplay:10.37,2013-01-23 10:30:00,
2013-01-23 10:35:00,32.7,18.3,29.85,East,100,2.0,6.0,55,0.00,CLR,CLR,0.00,WeatherDisplay:10.37,2013-01-23 10:35:00,
2013-01-23 10:45:00,32.7,17.9,29.85,ESE,111,0.0,4.0,54,0.00,CLR,CLR,0.00,WeatherDisplay:10.37,2013-01-23 10:45:00,
2013-01-23 10:50:00,32.9,18.1,29.85,ESE,106,1.0,4.0,54,0.00,CLR,CLR,0.00,WeatherDisplay:10.37,2013-01-23 10:50:00,
2013-01-23 10:55:00,32.9,18.1,29.85,East,87,0.0,0.0,54,0.00,CLR,CLR,0.00,WeatherDisplay:10.37,2013-01-23 10:55:00,
2013-01-23 11:00:00,32.9,18.1,29.85,ENE,77,0.0,0.0,54,0.00,CLR,CLR,0.00,WeatherDisplay:10.37,2013-01-23 11:00:00,
2013-01-23 11:05:00,33.1,18.2,29.85,ESE,116,0.0,0.0,54,0.00,CLR,CLR,0.00,WeatherDisplay:10.37,2013-01-23 11:05:00,
2013-01-23 11:10:00,33.1,18.2,29.85,SSE,154,0.0,0.0,54,0.00,CLR,CLR,0.00,WeatherDisplay:10.37,2013-01-23 11:10:00,
2013-01-23 11:15:00,33.1,18.2,29.85,SSE,155,0.0,0.0,54,0.00,CLR,CLR,0.00,WeatherDisplay:10.37,2013-01-23 11:15:00,
2013-01-23 11:25:00,33.3,18.4,29.85,ESE,106,0.0,0.0,54,0.00,CLR,CLR,0.00,WeatherDisplay:10.37,2013-01-23 11:25:00,
2013-01-23 11:30:00,33.3,18.4,29.85,ESE,115,0.0,0.0,54,0.00,CLR,CLR,0.00,WeatherDisplay:10.37,2013-01-23 11:30:00,
2013-01-23 11:40:00,33.5,18.6,29.85,SE,138,0.0,0.0,54,0.00,CLR,CLR,0.00,WeatherDisplay:10.37,2013-01-23 11:40:00,
2013-01-23 11:50:00,33.6,18.7,29.85,SSE,155,0.0,5.0,54,0.00,CLR,CLR,0.00,WeatherDisplay:10.37,2013-01-23 11:50:00,
2013-01-23 11:55:00,33.8,18.5,29.85,SSE,150,2.0,5.0,53,0.00,CLR,CLR,0.00,WeatherDisplay:10.37,2013-01-23 11:55:00,
2013-01-23 12:00:00,33.8,18.5,29.85,SE,125,0.0,5.0,53,0.00,CLR,CLR,0.00,WeatherDisplay:10.37,2013-01-23 12:00:00,
2013-01-23 12:10:00,33.8,18.5,29.85,SE,128,0.0,0.0,53,0.00,CLR,CLR,0.00,WeatherDisplay:10.37,2013-01-23 12:10:00,
2013-01-23 12:15:00,33.8,18.5,29.85,ESE,109,1.0,6.0,53,0.00,CLR,CLR,0.00,WeatherDisplay:10.37,2013-01-23 12:15:00,
2013-01-23 12:20:00,33.8,18.0,29.85,East,98,0.0,6.0,52,0.00,CLR,CLR,0.00,WeatherDisplay:10.37,2013-01-23 12:20:00,
2013-01-23 12:25:00,33.8,18.0,29.85,East,95,1.0,6.0,52,0.00,CLR,CLR,0.00,WeatherDisplay:10.37,2013-01-23 12:25:00,
2013-01-23 12:30:00,33.6,17.8,29.85,East,82,6.0,8.0,52,0.00,CLR,CLR,0.00,WeatherDisplay:10.37,2013-01-23 12:30:00,
2013-01-23 12:35:00,33.8,17.6,29.85,East,88,3.0,6.0,51,0.00,CLR,CLR,0.00,WeatherDisplay:10.37,2013-01-23 12:35:00,
2013-01-23 12:45:00,33.8,17.1,29.85,ENE,72,2.0,4.0,50,0.00,CLR,CLR,0.00,WeatherDisplay:10.37,2013-01-23 12:45:00,
2013-01-23 12:50:00,34.0,17.3,29.85,ENE,57,2.0,6.0,50,0.00,CLR,CLR,0.00,WeatherDisplay:10.37,2013-01-23 12:50:00,
2013-01-23 12:55:00,34.0,17.3,29.85,NE,56,1.0,5.0,50,0.00,CLR,CLR,0.00,WeatherDisplay:10.37,2013-01-23 12:55:00,
2013-01-23 13:00:00,34.0,17.3,29.85,ENE,69,2.0,4.0,50,0.00,CLR,CLR,0.00,WeatherDisplay:10.37,2013-01-23 13:00:00,
2013-01-23 13:05:00,34.1,17.4,29.85,ENE,71,0.0,4.0,50,0.00,CLR,CLR,0.00,WeatherDisplay:10.37,2013-01-23 13:05:00,
2013-01-23 13:10:00,34.2,17.0,29.85,NE,54,6.0,9.0,49,0.00,CLR,CLR,0.00,WeatherDisplay:10.37,2013-01-23 13:10:00,
2013-01-23 13:15:00,34.2,17.0,29.85,ENE,76,5.0,6.0,49,0.00,CLR,CLR,0.00,WeatherDisplay:10.37,2013-01-23 13:15:00,
2013-01-23 13:20:00,34.2,17.0,29.85,ENE,76,5.0,7.0,49,0.00,CLR,CLR,0.00,WeatherDisplay:10.37,2013-01-23 13:20:00,
2013-01-23 13:25:00,34.2,17.0,29.85,ENE,67,3.0,7.0,49,0.00,CLR,CLR,0.00,WeatherDisplay:10.37,2013-01-23 13:25:00,
2013-01-23 13:30:00,34.0,16.8,29.85,ENE,68,3.0,6.0,49,0.00,CLR,CLR,0.00,WeatherDisplay:10.37,2013-01-23 13:30:00,
2013-01-23 13:35:00,34.0,16.8,29.85,East,86,3.0,8.0,49,0.00,CLR,CLR,0.00,WeatherDisplay:10.37,2013-01-23 13:35:00,
2013-01-23 13:40:00,34.0,16.8,29.85,East,95,5.0,6.0,49,0.00,CLR,CLR,0.00,WeatherDisplay:10.37,2013-01-23 13:40:00,
2013-01-23 13:45:00,34.0,16.8,29.85,East,93,3.0,6.0,49,0.00,CLR,CLR,0.00,WeatherDisplay:10.37,2013-01-23 13:45:00,
2013-01-23 13:50:00,34.0,16.8,29.85,East,88,5.0,7.0,49,0.00,CLR,CLR,0.00,WeatherDisplay:10.37,2013-01-23 13:50:00,
2013-01-23 13:55:00,34.0,17.3,29.85,East,88,5.0,8.0,50,0.00,CLR,CLR,0.00,WeatherDisplay:10.37,2013-01-23 13:55:00,
2013-01-23 14:00:00,34.0,17.3,29.85,East,80,2.0,6.0,50,0.00,CLR,CLR,0.00,WeatherDisplay:10.37,2013-01-23 14:00:00,
2013-01-23 14:05:00,34.0,17.3,29.85,ENE,78,1.0,6.0,50,0.00,CLR,CLR,0.00,WeatherDisplay:10.37,2013-01-23 14:05:00,
2013-01-23 14:10:00,34.0,17.3,29.85,East,83,0.0,5.0,50,0.00,CLR,CLR,0.00,WeatherDisplay:10.37,2013-01-23 14:10:00,
2013-01-23 14:15:00,34.0,17.3,29.85,ENE,75,0.0,4.0,50,0.00,CLR,CLR,0.00,WeatherDisplay:10.37,2013-01-23 14:15:00,
2013-01-23 14:20:00,34.0,17.3,29.85,ENE,65,0.0,5.0,50,0.00,CLR,CLR,0.00,WeatherDisplay:10.37,2013-01-23 14:20:00,
2013-01-23 14:25:00,34.0,17.3,29.85,ENE,66,2.0,6.0,50,0.00,CLR,CLR,0.00,WeatherDisplay:10.37,2013-01-23 14:25:00,
2013-01-23 14:30:00,34.0,17.3,29.85,ENE,72,2.0,6.0,50,0.00,CLR,CLR,0.00,WeatherDisplay:10.37,2013-01-23 14:30:00,
2013-01-23 14:35:00,34.0,17.3,29.85,NE,55,3.0,6.0,50,0.00,CLR,CLR,0.00,WeatherDisplay:10.37,2013-01-23 14:35:00,
2013-01-23 14:40:00,34.0,17.3,29.85,NE,51,0.0,6.0,50,0.00,CLR,CLR,0.00,WeatherDisplay:10.37,2013-01-23 14:40:00,
2013-01-23 14:45:00,33.8,17.1,29.85,ENE,60,0.0,0.0,50,0.00,CLR,CLR,0.00,WeatherDisplay:10.37,2013-01-23 14:45:00,
2013-01-23 14:50:00,33.8,17.1,29.88,ENE,74,0.0,0.0,50,0.00,CLR,CLR,0.00,WeatherDisplay:10.37,2013-01-23 14:50:00,
2013-01-23 14:55:00,33.8,17.1,29.88,ENE,62,0.0,0.0,50,0.00,CLR,CLR,0.00,WeatherDisplay:10.37,2013-01-23 14:55:00,
2013-01-23 15:00:00,33.6,16.9,29.88,ENE,60,0.0,6.0,50,0.00,CLR,CLR,0.00,WeatherDisplay:10.37,2013-01-23 15:00:00,
2013-01-23 15:05:00,33.6,17.4,29.88,East,88,3.0,6.0,51,0.00,CLR,CLR,0.00,WeatherDisplay:10.37,2013-01-23 15:05:00,
2013-01-23 15:10:00,33.6,17.4,29.88,East,87,0.0,5.0,51,0.00,CLR,CLR,0.00,WeatherDisplay:10.37,2013-01-23 15:10:00,
2013-01-23 15:15:00,33.6,17.4,29.88,ENE,59,3.0,6.0,51,0.00,CLR,CLR,0.00,WeatherDisplay:10.37,2013-01-23 15:15:00,
2013-01-23 15:20:00,33.8,17.6,29.88,NE,54,3.0,6.0,51,0.00,CLR,CLR,0.00,WeatherDisplay:10.37,2013-01-23 15:20:00,
2013-01-23 15:25:00,33.8,17.6,29.88,ENE,65,2.0,6.0,51,0.00,CLR,CLR,0.00,WeatherDisplay:10.37,2013-01-23 15:25:00,
2013-01-23 15:30:00,33.8,17.6,29.88,ENE,77,3.0,6.0,51,0.00,CLR,CLR,0.00,WeatherDisplay:10.37,2013-01-23 15:30:00,
2013-01-23 15:35:00,33.8,17.6,29.88,ENE,63,2.0,6.0,51,0.00,CLR,CLR,0.00,WeatherDisplay:10.37,2013-01-23 15:35:00,
2013-01-23 15:40:00,33.8,17.6,29.88,ENE,59,3.0,6.0,51,0.00,CLR,CLR,0.00,WeatherDisplay:10.37,2013-01-23 15:40:00,
2013-01-23 15:45:00,33.8,17.6,29.88,East,82,3.0,6.0,51,0.00,CLR,CLR,0.00,WeatherDisplay:10.37,2013-01-23 15:45:00,
2013-01-23 15:50:00,33.8,17.6,29.88,ENE,75,3.0,6.0,51,0.00,CLR,CLR,0.00,WeatherDisplay:10.37,2013-01-23 15:50:00,
2013-01-23 15:55:00,33.6,17.8,29.88,NE,54,2.0,6.0,52,0.00,CLR,CLR,0.00,WeatherDisplay:10.37,2013-01-23 15:55:00,
2013-01-23 16:00:00,33.6,17.8,29.88,ENE,74,2.0,5.0,52,0.00,CLR,CLR,0.00,WeatherDisplay:10.37,2013-01-23 16:00:00,
2013-01-23 16:05:00,33.6,17.8,29.88,ENE,76,1.0,6.0,52,0.00,CLR,CLR,0.00,WeatherDisplay:10.37,2013-01-23 16:05:00,
2013-01-23 16:10:00,33.6,17.8,29.88,ENE,60,3.0,6.0,52,0.00,CLR,CLR,0.00,WeatherDisplay:10.37,2013-01-23 16:10:00,
2013-01-23 16:15:00,33.6,17.8,29.88,ENE,59,2.0,4.0,52,0.00,CLR,CLR,0.00,WeatherDisplay:10.37,2013-01-23 16:15:00,
2013-01-23 16:20:00,33.4,17.7,29.88,ENE,66,3.0,6.0,52,0.00,CLR,CLR,0.00,WeatherDisplay:10.37,2013-01-23 16:20:00,
2013-01-23 16:25:00,33.4,17.7,29.88,ENE,63,3.0,6.0,52,0.00,CLR,CLR,0.00,WeatherDisplay:10.37,2013-01-23 16:25:00,
2013-01-23 16:30:00,33.4,17.7,29.88,ENE,64,2.0,4.0,52,0.00,CLR,CLR,0.00,WeatherDisplay:10.37,2013-01-23 16:30:00,
2013-01-23 16:40:00,33.3,17.5,29.88,ENE,65,2.0,4.0,52,0.00,CLR,CLR,0.00,WeatherDisplay:10.37,2013-01-23 16:40:00,
2013-01-23 16:45:00,33.3,17.5,29.88,NE,50,0.0,0.0,52,0.00,CLR,CLR,0.00,WeatherDisplay:10.37,2013-01-23 16:45:00,
2013-01-23 16:50:00,33.3,17.5,29.88,NE,44,1.0,4.0,52,0.00,CLR,CLR,0.00,WeatherDisplay:10.37,2013-01-23 16:50:00,
2013-01-23 16:55:00,33.1,17.4,29.88,NE,37,0.0,6.0,52,0.00,CLR,CLR,0.00,WeatherDisplay:10.37,2013-01-23 16:55:00,
2013-01-23 17:00:00,33.1,17.3,29.88,NE,50,1.0,4.0,52,0.00,CLR,CLR,0.00,WeatherDisplay:10.37,2013-01-23 17:00:00,
2013-01-23 17:10:00,33.1,17.3,29.88,NE,48,3.0,7.0,52,0.00,CLR,CLR,0.00,WeatherDisplay:10.37,2013-01-23 17:10:00,
2013-01-23 17:15:00,33.1,17.3,29.88,NE,46,3.0,6.0,52,0.00,CLR,CLR,0.00,WeatherDisplay:10.37,2013-01-23 17:15:00,
2013-01-23 17:20:00,33.1,17.3,29.88,NE,49,1.0,6.0,52,0.00,CLR,CLR,0.00,WeatherDisplay:10.37,2013-01-23 17:20:00,
2013-01-23 17:25:00,33.3,17.5,29.88,ENE,59,1.0,6.0,52,0.00,CLR,CLR,0.00,WeatherDisplay:10.37,2013-01-23 17:25:00,
2013-01-23 17:30:00,33.3,17.5,29.88,NE,55,1.0,6.0,52,0.00,CLR,CLR,0.00,WeatherDisplay:10.37,2013-01-23 17:30:00,
2013-01-23 17:35:00,33.3,17.5,29.88,NE,52,2.0,6.0,52,0.00,CLR,CLR,0.00,WeatherDisplay:10.37,2013-01-23 17:35:00,
2013-01-23 17:40:00,33.3,17.5,29.88,NE,56,1.0,6.0,52,0.00,CLR,CLR,0.00,WeatherDisplay:10.37,2013-01-23 17:40:00,
2013-01-23 17:45:00,33.3,17.5,29.88,ENE,73,3.0,6.0,52,0.00,CLR,CLR,0.00,WeatherDisplay:10.37,2013-01-23 17:45:00,
2013-01-23 17:50:00,33.3,17.5,29.88,ENE,61,2.0,5.0,52,0.00,CLR,CLR,0.00,WeatherDisplay:10.37,2013-01-23 17:50:00,
2013-01-23 17:55:00,33.3,18.0,29.88,NE,43,2.0,6.0,53,0.00,CLR,CLR,0.00,WeatherDisplay:10.37,2013-01-23 17:55:00,
2013-01-23 18:00:00,33.3,18.0,29.88,NE,42,1.0,5.0,53,0.00,CLR,CLR,0.00,WeatherDisplay:10.37,2013-01-23 18:00:00,
2013-01-23 18:05:00,33.3,18.0,29.88,NE,47,2.0,6.0,53,0.00,CLR,CLR,0.00,WeatherDisplay:10.37,2013-01-23 18:05:00,
2013-01-23 18:10:00,33.3,18.0,29.88,NE,47,3.0,8.0,53,0.00,CLR,CLR,0.00,WeatherDisplay:10.37,2013-01-23 18:10:00,
2013-01-23 18:15:00,33.3,18.0,29.88,ENE,58,2.0,4.0,53,0.00,CLR,CLR,0.00,WeatherDisplay:10.37,2013-01-23 18:15:00,
2013-01-23 18:20:00,33.3,18.0,29.88,ENE,61,1.0,6.0,53,0.00,CLR,CLR,0.00,WeatherDisplay:10.37,2013-01-23 18:20:00,
2013-01-23 18:25:00,33.3,18.0,29.88,ENE,74,0.0,4.0,53,0.00,CLR,CLR,0.00,WeatherDisplay:10.37,2013-01-23 18:25:00,
2013-01-23 18:30:00,33.3,18.0,29.88,East,85,0.0,5.0,53,0.00,CLR,CLR,0.00,WeatherDisplay:10.37,2013-01-23 18:30:00,
2013-01-23 18:35:00,33.3,18.0,29.88,ENE,77,2.0,6.0,53,0.00,CLR,CLR,0.00,WeatherDisplay:10.37,2013-01-23 18:35:00,
2013-01-23 18:40:00,33.3,18.4,29.88,East,79,0.0,4.0,54,0.00,CLR,CLR,0.00,WeatherDisplay:10.37,2013-01-23 18:40:00,
2013-01-23 18:45:00,33.3,18.4,29.88,East,84,3.0,6.0,54,0.00,CLR,CLR,0.00,WeatherDisplay:10.37,2013-01-23 18:45:00,
2013-01-23 18:50:00,33.3,18.4,29.88,East,91,0.0,4.0,54,0.00,CLR,CLR,0.00,WeatherDisplay:10.37,2013-01-23 18:50:00,
2013-01-23 18:55:00,33.3,18.4,29.88,East,87,0.0,4.0,54,0.00,CLR,CLR,0.00,WeatherDisplay:10.37,2013-01-23 18:55:00,
2013-01-23 19:00:00,33.3,18.4,29.88,NE,53,0.0,5.0,54,0.00,CLR,CLR,0.00,WeatherDisplay:10.37,2013-01-23 19:00:00,
2013-01-23 19:05:00,33.3,18.4,29.88,NE,56,0.0,4.0,54,0.00,CLR,CLR,0.00,WeatherDisplay:10.37,2013-01-23 19:05:00,
2013-01-23 19:10:00,33.3,18.4,29.88,ENE,70,0.0,0.0,54,0.00,CLR,CLR,0.00,WeatherDisplay:10.37,2013-01-23 19:10:00,
2013-01-23 19:15:00,33.3,18.4,29.88,NE,53,0.0,5.0,54,0.00,CLR,CLR,0.00,WeatherDisplay:10.37,2013-01-23 19:15:00,
2013-01-23 19:20:00,33.4,19.0,29.88,ENE,65,0.0,4.0,55,0.00,CLR,CLR,0.00,WeatherDisplay:10.37,2013-01-23 19:20:00,
2013-01-23 19:25:00,33.4,19.0,29.88,East,81,2.0,3.0,55,0.00,CLR,CLR,0.00,WeatherDisplay:10.37,2013-01-23 19:25:00,
2013-01-23 19:30:00,33.4,19.0,29.88,ENE,71,2.0,4.0,55,0.00,CLR,CLR,0.00,WeatherDisplay:10.37,2013-01-23 19:30:00,
2013-01-23 19:40:00,33.6,19.6,29.88,ENE,73,0.0,5.0,56,0.00,CLR,CLR,0.00,WeatherDisplay:10.37,2013-01-23 19:40:00,
2013-01-23 19:45:00,33.6,19.6,29.88,East,80,0.0,5.0,56,0.00,CLR,CLR,0.00,WeatherDisplay:10.37,2013-01-23 19:45:00,
2013-01-23 19:50:00,33.4,19.4,29.88,East,79,3.0,4.0,56,0.00,CLR,CLR,0.00,WeatherDisplay:10.37,2013-01-23 19:50:00,
2013-01-23 20:00:00,33.6,20.0,29.88,ENE,62,2.0,8.0,57,0.00,CLR,CLR,0.00,WeatherDisplay:10.37,2013-01-23 20:00:00,
2013-01-23 20:05:00,33.6,20.0,29.88,ENE,66,3.0,6.0,57,0.00,CLR,CLR,0.00,WeatherDisplay:10.37,2013-01-23 20:05:00,
2013-01-23 20:10:00,33.4,20.2,29.88,ENE,61,2.0,7.0,58,0.00,CLR,CLR,0.00,WeatherDisplay:10.37,2013-01-23 20:10:00,
2013-01-23 20:15:00,33.4,20.2,29.88,ENE,62,3.0,7.0,58,0.00,CLR,CLR,0.00,WeatherDisplay:10.37,2013-01-23 20:15:00,
2013-01-23 20:20:00,33.4,20.6,29.88,NE,56,3.0,6.0,59,0.00,CLR,CLR,0.00,WeatherDisplay:10.37,2013-01-23 20:20:00,
2013-01-23 20:25:00,33.4,20.6,29.88,NE,47,3.0,6.0,59,0.00,CLR,CLR,0.00,WeatherDisplay:10.37,2013-01-23 20:25:00,
2013-01-23 20:30:00,33.4,21.0,29.88,NE,54,5.0,8.0,60,0.00,CLR,CLR,0.00,WeatherDisplay:10.37,2013-01-23 20:30:00,
2013-01-23 20:35:00,33.6,21.2,29.88,NE,51,5.0,6.0,60,0.00,CLR,CLR,0.00,WeatherDisplay:10.37,2013-01-23 20:35:00,
2013-01-23 20:40:00,33.6,21.6,29.88,NE,53,2.0,7.0,61,0.00,CLR,CLR,0.00,WeatherDisplay:10.37,2013-01-23 20:40:00,
2013-01-23 20:45:00,33.5,21.5,29.88,NE,54,5.0,6.0,61,0.00,CLR,CLR,0.00,WeatherDisplay:10.37,2013-01-23 20:45:00,
2013-01-23 20:50:00,33.4,21.8,29.91,NE,53,1.0,6.0,62,0.00,CLR,CLR,0.00,WeatherDisplay:10.37,2013-01-23 20:50:00,
2013-01-23 20:55:00,33.4,21.8,29.91,ENE,65,3.0,5.0,62,0.00,CLR,CLR,0.00,WeatherDisplay:10.37,2013-01-23 20:55:00,
2013-01-23 21:00:00,33.4,21.8,29.91,ENE,69,2.0,6.0,62,0.00,CLR,CLR,0.00,WeatherDisplay:10.37,2013-01-23 21:00:00,
2013-01-23 21:05:00,33.4,21.8,29.91,ENE,75,2.0,4.0,62,0.00,CLR,CLR,0.00,WeatherDisplay:10.37,2013-01-23 21:05:00,
2013-01-23 21:10:00,33.4,21.8,29.91,ENE,71,3.0,6.0,62,0.00,CLR,CLR,0.00,WeatherDisplay:10.37,2013-01-23 21:10:00,
2013-01-23 21:15:00,33.4,21.8,29.91,ENE,68,5.0,8.0,62,0.00,CLR,CLR,0.00,WeatherDisplay:10.37,2013-01-23 21:15:00,
2013-01-23 21:20:00,33.4,22.2,29.91,ENE,65,3.0,5.0,63,0.00,CLR,CLR,0.00,WeatherDisplay:10.37,2013-01-23 21:20:00,
2013-01-23 21:25:00,33.4,22.1,29.91,ENE,76,0.0,4.0,63,0.00,CLR,CLR,0.00,WeatherDisplay:10.37,2013-01-23 21:25:00,
2013-01-23 21:30:00,33.3,22.0,29.91,ENE,62,1.0,6.0,63,0.00,CLR,CLR,0.00,WeatherDisplay:10.37,2013-01-23 21:30:00,
2013-01-23 21:35:00,33.4,22.2,29.91,ENE,61,3.0,5.0,63,0.00,CLR,CLR,0.00,WeatherDisplay:10.37,2013-01-23 21:35:00,
2013-01-23 21:40:00,33.4,22.2,29.91,ENE,67,2.0,4.0,63,0.00,CLR,CLR,0.00,WeatherDisplay:10.37,2013-01-23 21:40:00,
2013-01-23 21:45:00,33.4,22.6,29.91,ENE,61,2.0,4.0,64,0.00,CLR,CLR,0.00,WeatherDisplay:10.37,2013-01-23 21:45:00,
2013-01-23 21:50:00,33.4,22.6,29.91,ENE,64,0.0,3.0,64,0.00,CLR,CLR,0.00,WeatherDisplay:10.37,2013-01-23 21:50:00,
2013-01-23 21:55:00,33.4,22.6,29.91,ENE,71,0.0,5.0,64,0.00,CLR,CLR,0.00,WeatherDisplay:10.37,2013-01-23 21:55:00,
2013-01-23 22:00:00,33.4,22.6,29.91,ENE,74,3.0,5.0,64,0.00,CLR,CLR,0.00,WeatherDisplay:10.37,2013-01-23 22:00:00,
2013-01-23 22:05:00,33.4,22.6,29.91,ENE,64,0.0,5.0,64,0.00,CLR,CLR,0.00,WeatherDisplay:10.37,2013-01-23 22:05:00,
2013-01-23 22:10:00,33.4,22.6,29.91,ENE,62,0.0,4.0,64,0.00,CLR,CLR,0.00,WeatherDisplay:10.37,2013-01-23 22:10:00,
2013-01-23 22:15:00,33.4,22.6,29.91,NE,48,3.0,6.0,64,0.00,CLR,CLR,0.00,WeatherDisplay:10.37,2013-01-23 22:15:00,
2013-01-23 22:20:00,33.4,22.6,29.91,NE,51,0.0,6.0,64,0.00,CLR,CLR,0.00,WeatherDisplay:10.37,2013-01-23 22:20:00,
2013-01-23 22:30:00,33.3,22.4,29.91,NE,56,2.0,4.0,64,0.00,CLR,CLR,0.00,WeatherDisplay:10.37,2013-01-23 22:30:00,
2013-01-23 22:35:00,33.3,22.8,29.91,ENE,59,0.0,4.0,65,0.00,CLR,CLR,0.00,WeatherDisplay:10.37,2013-01-23 22:35:00,
2013-01-23 22:40:00,33.3,22.8,29.91,NE,53,1.0,6.0,65,0.00,CLR,CLR,0.00,WeatherDisplay:10.37,2013-01-23 22:40:00,
2013-01-23 22:45:00,33.3,22.8,29.91,ENE,78,0.0,6.0,65,0.00,CLR,CLR,0.00,WeatherDisplay:10.37,2013-01-23 22:45:00,
2013-01-23 22:50:00,33.4,22.9,29.91,ENE,67,5.0,6.0,65,0.00,CLR,CLR,0.00,WeatherDisplay:10.37,2013-01-23 22:50:00,
2013-01-23 22:55:00,33.4,22.9,29.91,NE,53,3.0,6.0,65,0.00,CLR,CLR,0.00,WeatherDisplay:10.37,2013-01-23 22:55:00,
2013-01-23 23:00:00,33.4,23.3,29.91,NE,55,1.0,4.0,66,0.00,CLR,CLR,0.00,WeatherDisplay:10.37,2013-01-23 23:00:00,
2013-01-23 23:05:00,33.4,22.9,29.91,NE,50,2.0,4.0,65,0.00,CLR,CLR,0.00,WeatherDisplay:10.37,2013-01-23 23:05:00,
2013-01-23 23:10:00,33.4,23.3,29.91,NE,53,2.0,4.0,66,0.00,CLR,CLR,0.00,WeatherDisplay:10.37,2013-01-23 23:10:00,
2013-01-23 23:15:00,33.4,23.3,29.91,ENE,57,3.0,6.0,66,0.00,CLR,CLR,0.00,WeatherDisplay:10.37,2013-01-23 23:15:00,
2013-01-23 23:20:00,33.4,23.3,29.94,NE,54,3.0,5.0,66,0.00,CLR,CLR,0.00,WeatherDisplay:10.37,2013-01-23 23:20:00,
2013-01-23 23:25:00,33.4,23.3,29.94,ENE,62,2.0,4.0,66,0.00,CLR,CLR,0.00,WeatherDisplay:10.37,2013-01-23 23:25:00,
2013-01-23 23:30:00,33.4,23.3,29.94,ENE,58,0.0,4.0,66,0.00,CLR,CLR,0.00,WeatherDisplay:10.37,2013-01-23 23:30:00,
2013-01-23 23:35:00,33.4,23.3,29.94,ENE,57,0.0,6.0,66,0.00,CLR,CLR,0.00,WeatherDisplay:10.37,2013-01-23 23:35:00,
2013-01-23 23:40:00,33.4,23.3,29.94,ENE,58,2.0,6.0,66,0.00,CLR,CLR,0.00,WeatherDisplay:10.37,2013-01-23 23:40:00,
2013-01-23 23:45:00,33.4,23.3,29.94,NE,56,5.0,8.0,66,0.00,CLR,CLR,0.00,WeatherDisplay:10.37,2013-01-23 23:45:00,
2013-01-23 23:50:00,33.4,23.3,29.94,ENE,58,3.0,6.0,66,0.00,CLR,CLR,0.00,WeatherDisplay:10.37,2013-01-23 23:50:00,
2013-01-23 23:55:00,33.4,23.3,29.94,ENE,67,2.0,5.0,66,0.00,CLR,CLR,0.00,WeatherDisplay:10.37,2013-01-23 23:55:00,